Time;durP1;ratioP1;P1;durP2;ratioP2;P2;SDS_P1;SDS_P2;PMS_P1;PMS_P2;Temp;Humidity;BMP_temperature;BMP_pressure;BME280_temperature;BME280_humidity;BME280_pressure;Samples;Min_cycle;Max_cycle;Signal;HPM_P1;HPM_P2
2023/03/19 00:01:07;;;;;;;20.67;13.70;;;10.20;1.00;;;;;;5033447;28;20834;-50
2023/03/19 00:03:34;;;;;;;17.20;12.97;;;10.20;1.00;;;;;;5033411;28;20637;-50
2023/03/19 00:06:00;;;;;;;19.23;12.43;;;10.10;1.00;;;;;;5033437;28;20468;-49
2023/03/19 00:08:26;;;;;;;15.87;11.53;;;10.10;1.00;;;;;;5033296;28;20421;-50
2023/03/19 00:10:51;;;;;;;19.03;13.00;;;10.10;1.00;;;;;;5033354;28;20432;-50
2023/03/19 00:13:17;;;;;;;19.47;11.80;;;10.10;1.00;;;;;;5033256;28;20185;-52
2023/03/19 00:15:43;;;;;;;20.73;13.13;;;10.10;19.90;;;;;;5033390;28;20214;-50
2023/03/19 00:18:09;;;;;;;19.40;12.60;;;10.10;99.30;;;;;;5033665;28;20443;-50
2023/03/19 00:20:35;;;;;;;13.93;11.20;;;10.10;99.90;;;;;;5033416;28;20417;-49
2023/03/19 00:23:01;;;;;;;17.50;12.47;;;10.00;99.90;;;;;;5033441;28;20194;-50
2023/03/19 00:25:26;;;;;;;18.23;12.83;;;10.10;99.90;;;;;;5033363;28;20196;-50
2023/03/19 00:27:53;;;;;;;16.00;11.63;;;10.10;99.90;;;;;;5033355;28;20189;-50
2023/03/19 00:30:20;;;;;;;24.03;13.10;;;10.10;99.90;;;;;;5033440;28;20251;-51
2023/03/19 00:32:46;;;;;;;18.50;12.63;;;10.10;99.90;;;;;;5033088;28;20472;-50
2023/03/19 00:35:11;;;;;;;19.20;12.90;;;10.00;99.90;;;;;;5033152;28;20418;-50
2023/03/19 00:37:37;;;;;;;17.97;12.40;;;9.90;99.90;;;;;;5033500;28;20416;-50
2023/03/19 00:40:04;;;;;;;16.77;13.03;;;9.90;99.90;;;;;;5033306;28;20182;-50
2023/03/19 00:42:30;;;;;;;18.00;12.57;;;9.90;1.00;;;;;;5032885;28;20222;-50
2023/03/19 00:44:56;;;;;;;17.27;11.85;;;9.80;1.00;;;;;;5031692;28;20421;-49
2023/03/19 00:47:22;;;;;;;17.17;12.30;;;9.80;99.90;;;;;;5032997;28;20190;-50
2023/03/19 00:49:47;;;;;;;14.77;11.40;;;9.80;99.90;;;;;;5032998;28;20630;-50
2023/03/19 00:52:13;;;;;;;15.87;10.87;;;9.70;99.90;;;;;;5032957;28;20483;-49
2023/03/19 00:54:39;;;;;;;17.73;12.37;;;9.70;1.00;;;;;;5033161;28;20190;-50
2023/03/19 00:57:05;;;;;;;13.37;9.87;;;9.70;1.00;;;;;;5035154;28;20236;-49
2023/03/19 00:59:30;;;;;;;13.07;9.50;;;9.70;99.90;;;;;;5036716;28;20186;-49
2023/03/19 01:01:56;;;;;;;13.20;9.60;;;9.70;99.90;;;;;;5036364;28;20427;-49
2023/03/19 01:04:22;;;;;;;13.03;9.60;;;9.80;38.70;;;;;;5036992;28;20217;-49
2023/03/19 01:06:48;;;;;;;13.97;8.47;;;9.80;1.00;;;;;;5037030;28;20614;-50
2023/03/19 01:09:14;;;;;;;11.40;9.03;;;9.80;99.90;;;;;;5036697;28;20179;-49
2023/03/19 01:11:40;;;;;;;10.67;8.37;;;9.90;1.00;;;;;;5036682;28;20467;-49
2023/03/19 01:14:06;;;;;;;11.97;8.70;;;9.80;1.00;;;;;;5035930;28;20421;-49
2023/03/19 01:16:33;;;;;;;11.17;7.17;;;9.80;99.90;;;;;;5036610;28;20192;-49
2023/03/19 01:18:59;;;;;;;9.70;7.77;;;9.80;1.00;;;;;;5036124;28;20196;-49
2023/03/19 01:21:26;;;;;;;10.20;7.33;;;9.80;1.00;;;;;;5036223;28;20456;-50
2023/03/19 01:23:52;;;;;;;9.17;6.67;;;9.90;99.90;;;;;;5035964;28;20436;-50
2023/03/19 01:26:18;;;;;;;10.70;7.10;;;9.90;1.00;;;;;;5036353;28;20920;-49
2023/03/19 01:28:43;;;;;;;7.67;6.30;;;9.80;97.00;;;;;;5036249;28;20240;-49
2023/03/19 01:31:10;;;;;;;8.70;6.33;;;9.80;99.90;;;;;;5035650;28;20847;-50
2023/03/19 01:33:36;;;;;;;7.50;6.60;;;9.80;93.30;;;;;;5035926;28;20239;-50
2023/03/19 01:36:03;;;;;;;9.63;6.27;;;9.70;99.90;;;;;;5035725;28;20436;-49
2023/03/19 01:38:29;;;;;;;8.13;6.07;;;9.70;43.80;;;;;;5036143;28;20427;-49
2023/03/19 01:40:55;;;;;;;9.20;6.50;;;9.60;5.20;;;;;;5035840;28;20463;-50
2023/03/19 01:43:26;;;;;;;7.80;6.00;;;9.70;1.00;;;;;;5035530;28;20971;-50
2023/03/19 01:46:05;;;;;;;9.73;6.87;;;9.70;99.90;;;;;;5035575;28;20178;-49
2023/03/19 01:49:02;;;;;;;10.60;7.57;;;9.60;10.60;;;;;;5035519;28;20948;-49
2023/03/19 01:51:33;;;;;;;13.10;7.77;;;9.60;99.90;;;;;;5031039;28;20490;-50
2023/03/19 01:54:02;;;;;;;10.87;6.33;;;9.60;1.00;;;;;;5035590;28;20421;-49
2023/03/19 01:56:33;;;;;;;10.93;7.03;;;9.70;1.00;;;;;;5035739;28;20499;-49
2023/03/19 01:59:19;;;;;;;13.10;7.13;;;9.70;22.60;;;;;;5035754;28;20451;-49
2023/03/19 02:02:09;;;;;;;12.90;6.73;;;9.70;99.90;;;;;;5035532;28;20409;-49
2023/03/19 02:04:37;;;;;;;9.57;6.47;;;9.70;99.90;;;;;;5035588;28;20409;-50
2023/03/19 02:07:04;;;;;;;8.67;6.87;;;9.70;87.70;;;;;;5035148;28;20830;-50
2023/03/19 02:09:30;;;;;;;7.77;6.03;;;9.60;8.60;;;;;;5035235;28;20427;-50
2023/03/19 02:11:58;;;;;;;9.10;6.50;;;9.60;1.00;;;;;;5035243;28;20472;-50
2023/03/19 02:14:23;;;;;;;9.27;6.20;;;9.60;1.00;;;;;;5035287;28;20431;-49
2023/03/19 02:16:50;;;;;;;6.57;5.80;;;9.60;1.00;;;;;;5035195;28;20408;-49
2023/03/19 02:19:39;;;;;;;9.80;6.37;;;9.50;1.00;;;;;;5035196;28;20241;-50
2023/03/19 02:22:05;;;;;;;10.23;6.00;;;9.40;1.00;;;;;;5035151;28;20432;-50
2023/03/19 02:25:12;;;;;;;5.97;5.37;;;9.40;1.00;;;;;;5034859;28;20432;-50
2023/03/19 02:27:37;;;;;;;6.83;5.70;;;9.30;13.80;;;;;;5034442;28;20528;-49
2023/03/19 02:30:23;;;;;;;9.93;5.80;;;9.30;29.60;;;;;;5034751;28;20512;-50
2023/03/19 02:32:48;;;;;;;6.93;5.80;;;9.20;90.80;;;;;;5034413;28;20249;-49
2023/03/19 02:35:14;;;;;;;8.57;6.03;;;9.20;99.90;;;;;;5034706;28;20452;-49
2023/03/19 02:37:40;;;;;;;8.67;5.80;;;9.10;99.90;;;;;;5035001;28;20186;-49
2023/03/19 02:40:28;;;;;;;7.07;5.77;;;9.10;99.90;;;;;;5034484;28;20487;-49
2023/03/19 02:42:54;;;;;;;8.67;5.60;;;9.00;99.90;;;;;;5034830;28;20250;-49
2023/03/19 02:45:20;;;;;;;6.70;6.00;;;9.00;1.00;;;;;;5034639;28;20881;-49
2023/03/19 02:47:45;;;;;;;6.80;5.60;;;8.90;1.00;;;;;;5034760;28;20583;-49
2023/03/19 02:50:11;;;;;;;7.80;6.40;;;8.90;1.00;;;;;;5034597;28;20304;-49
2023/03/19 02:52:37;;;;;;;7.17;5.60;;;8.90;1.00;;;;;;5034502;28;20256;-49
2023/03/19 02:55:03;;;;;;;8.97;6.27;;;8.80;1.00;;;;;;5034797;28;20186;-49
2023/03/19 02:57:28;;;;;;;9.07;6.30;;;8.80;1.00;;;;;;5034487;28;20190;-49
2023/03/19 02:59:54;;;;;;;6.97;5.57;;;8.80;1.00;;;;;;5034579;28;20634;-48
2023/03/19 03:02:20;;;;;;;7.90;6.10;;;8.70;1.00;;;;;;5034343;28;20186;-48
2023/03/19 03:04:45;;;;;;;8.03;5.70;;;8.70;1.00;;;;;;5034128;28;20182;-48
2023/03/19 03:07:11;;;;;;;9.33;6.63;;;8.70;9.10;;;;;;5034659;28;20186;-48
2023/03/19 03:09:36;;;;;;;8.67;6.03;;;8.70;22.40;;;;;;5034141;28;20204;-49
2023/03/19 03:12:02;;;;;;;6.63;5.73;;;8.60;36.60;;;;;;5034239;28;20210;-50
2023/03/19 03:14:28;;;;;;;8.10;6.47;;;8.60;56.50;;;;;;5034117;28;20623;-49
2023/03/19 03:16:54;;;;;;;8.20;6.43;;;8.60;92.10;;;;;;5034484;28;20499;-49
2023/03/19 03:19:20;;;;;;;7.30;5.93;;;8.60;99.90;;;;;;5033020;28;20494;-48
2023/03/19 03:21:45;;;;;;;9.27;6.30;;;8.60;99.90;;;;;;5034279;28;20221;-48
2023/03/19 03:24:11;;;;;;;8.97;7.07;;;8.50;99.90;;;;;;5034059;28;20502;-49
2023/03/19 03:26:40;;;;;;;7.90;5.70;;;8.50;99.90;;;;;;5033794;28;20186;-49
2023/03/19 03:29:06;;;;;;;9.70;6.30;;;8.50;99.90;;;;;;5034173;28;20185;-49
2023/03/19 03:31:33;;;;;;;8.47;6.50;;;8.50;99.90;;;;;;5033796;28;20461;-49
2023/03/19 03:34:00;;;;;;;9.83;7.10;;;8.40;99.90;;;;;;5033819;28;20790;-48
2023/03/19 03:36:26;;;;;;;6.97;6.27;;;8.40;99.90;;;;;;5033847;28;20421;-48
2023/03/19 03:38:52;;;;;;;6.70;6.00;;;8.40;99.90;;;;;;5033924;28;20798;-49
2023/03/19 03:41:18;;;;;;;10.17;6.60;;;8.40;99.90;;;;;;5034171;28;20177;-48
2023/03/19 03:43:44;;;;;;;8.50;6.33;;;8.40;99.90;;;;;;5033324;28;20926;-49
2023/03/19 03:46:10;;;;;;;7.60;6.20;;;8.40;99.90;;;;;;5033638;28;20409;-48
2023/03/19 03:48:36;;;;;;;11.50;6.70;;;8.40;99.90;;;;;;5033289;28;20188;-49
2023/03/19 03:51:02;;;;;;;9.30;6.50;;;8.40;99.90;;;;;;5033626;28;20417;-48
2023/03/19 03:53:27;;;;;;;8.63;6.30;;;8.40;99.90;;;;;;5033382;28;20268;-49
2023/03/19 03:55:53;;;;;;;8.63;6.10;;;8.40;99.90;;;;;;5033556;28;20959;-48
2023/03/19 03:58:19;;;;;;;7.30;6.17;;;8.40;99.90;;;;;;5033609;28;20186;-48
2023/03/19 04:00:45;;;;;;;11.37;6.40;;;8.40;99.90;;;;;;5033298;28;20517;-49
2023/03/19 04:03:12;;;;;;;8.57;6.77;;;8.40;99.90;;;;;;5033419;28;20190;-48
2023/03/19 04:05:38;;;;;;;7.70;6.70;;;8.40;99.90;;;;;;5033277;28;20792;-48
2023/03/19 04:08:04;;;;;;;7.40;6.00;;;8.40;99.90;;;;;;5033418;28;20424;-49
2023/03/19 04:10:30;;;;;;;7.10;6.40;;;8.40;99.90;;;;;;5033395;28;20247;-48
2023/03/19 04:12:56;;;;;;;8.53;6.20;;;8.40;99.90;;;;;;5033260;28;20468;-48
2023/03/19 04:15:22;;;;;;;8.13;6.07;;;8.40;99.90;;;;;;5033280;28;20245;-48
2023/03/19 04:17:48;;;;;;;7.23;5.80;;;8.30;99.90;;;;;;5033106;28;20449;-49
2023/03/19 04:20:15;;;;;;;8.63;5.87;;;8.30;99.90;;;;;;5033066;28;20193;-48
2023/03/19 04:22:40;;;;;;;7.67;6.70;;;8.30;99.90;;;;;;5033153;28;20186;-48
2023/03/19 04:25:07;;;;;;;10.00;6.23;;;8.30;99.90;;;;;;5032868;28;20451;-48
2023/03/19 04:27:33;;;;;;;6.97;5.77;;;8.30;99.90;;;;;;5033270;28;20182;-48
2023/03/19 04:29:59;;;;;;;7.90;5.60;;;8.30;99.90;;;;;;5033926;28;20506;-48
2023/03/19 04:32:24;;;;;;;6.80;6.07;;;8.40;99.90;;;;;;5037022;28;20868;-48
2023/03/19 04:34:50;;;;;;;11.70;6.50;;;8.40;99.90;;;;;;5036931;28;20543;-49
2023/03/19 04:37:16;;;;;;;11.50;7.10;;;8.40;99.90;;;;;;5036991;28;20218;-49
2023/03/19 04:39:43;;;;;;;7.97;6.57;;;8.40;99.90;;;;;;5037049;28;20269;-48
2023/03/19 04:42:09;;;;;;;8.60;6.27;;;8.40;99.90;;;;;;5037122;28;20476;-48
2023/03/19 04:44:35;;;;;;;8.87;6.67;;;8.40;99.90;;;;;;5036562;28;20469;-48
2023/03/19 04:47:01;;;;;;;7.80;6.57;;;8.40;99.90;;;;;;5036857;28;20551;-48
2023/03/19 04:49:26;;;;;;;7.47;6.70;;;8.50;99.90;;;;;;5037174;28;20421;-49
2023/03/19 04:51:52;;;;;;;9.90;6.33;;;8.50;99.90;;;;;;5036492;28;20243;-48
2023/03/19 04:54:17;;;;;;;7.80;6.73;;;8.60;99.90;;;;;;5037033;28;20186;-48
2023/03/19 04:56:43;;;;;;;7.93;6.47;;;8.70;99.90;;;;;;5036965;28;20185;-48
2023/03/19 04:59:09;;;;;;;8.83;7.07;;;8.70;99.90;;;;;;5036630;28;20194;-49
2023/03/19 05:01:35;;;;;;;7.80;6.67;;;8.70;99.90;;;;;;5036928;28;20209;-49
2023/03/19 05:04:01;;;;;;;8.77;7.87;;;8.80;99.90;;;;;;5036803;28;20183;-49
2023/03/19 05:06:27;;;;;;;9.47;7.30;;;8.90;99.90;;;;;;5036938;28;20197;-48
2023/03/19 05:08:53;;;;;;;10.57;7.60;;;8.80;99.90;;;;;;5036347;28;20429;-48
2023/03/19 05:11:18;;;;;;;14.07;8.07;;;8.80;99.90;;;;;;5036470;28;20469;-48
2023/03/19 05:13:44;;;;;;;9.13;7.60;;;8.90;99.90;;;;;;5036473;28;20187;-49
2023/03/19 05:16:12;;;;;;;9.03;8.10;;;8.90;99.90;;;;;;5036494;28;20576;-48
2023/03/19 05:18:37;;;;;;;12.23;7.80;;;8.90;99.90;;;;;;5036045;28;20478;-48
2023/03/19 05:21:03;;;;;;;8.77;7.50;;;9.00;99.90;;;;;;5035956;28;20420;-48
2023/03/19 05:23:29;;;;;;;8.30;7.40;;;9.00;99.90;;;;;;5036355;28;20273;-49
2023/03/19 05:25:57;;;;;;;14.57;9.30;;;9.00;99.90;;;;;;5036433;28;20195;-49
2023/03/19 05:28:23;;;;;;;9.60;8.40;;;9.00;99.90;;;;;;5036451;28;20182;-48
2023/03/19 05:30:48;;;;;;;9.97;8.63;;;9.00;99.90;;;;;;5035682;28;20505;-48
2023/03/19 05:33:14;;;;;;;10.60;8.40;;;9.10;99.90;;;;;;5036335;28;20194;-48
2023/03/19 05:35:40;;;;;;;10.60;8.73;;;9.10;99.90;;;;;;5035704;28;20182;-48
2023/03/19 05:38:06;;;;;;;10.70;8.30;;;9.10;99.90;;;;;;5036248;28;20273;-48
2023/03/19 05:40:33;;;;;;;12.43;9.57;;;9.00;99.90;;;;;;5036102;28;20194;-48
2023/03/19 05:42:59;;;;;;;11.07;8.77;;;9.00;99.90;;;;;;5034818;28;20473;-48
2023/03/19 05:45:24;;;;;;;12.13;9.67;;;8.90;99.90;;;;;;5035801;28;20908;-48
2023/03/19 05:47:50;;;;;;;10.57;8.90;;;8.90;99.90;;;;;;5035895;28;20558;-48
2023/03/19 05:50:17;;;;;;;11.27;10.10;;;9.00;99.90;;;;;;5034285;28;20186;-49
2023/03/19 05:52:43;;;;;;;14.00;11.50;;;9.00;99.90;;;;;;5035683;28;20206;-49
2023/03/19 05:55:09;;;;;;;17.30;13.10;;;9.10;99.90;;;;;;5035574;28;20432;-48
2023/03/19 05:57:35;;;;;;;17.00;13.53;;;9.20;99.90;;;;;;5035908;28;20230;-48
2023/03/19 06:00:01;;;;;;;21.67;15.83;;;9.20;99.90;;;;;;5035388;28;20444;-48
2023/03/19 06:02:26;;;;;;;25.90;18.30;;;9.20;99.90;;;;;;5035252;28;20417;-48
2023/03/19 06:04:52;;;;;;;25.33;18.13;;;9.20;99.90;;;;;;5035574;28;20181;-49
2023/03/19 06:07:17;;;;;;;24.17;20.97;;;9.30;99.90;;;;;;5035419;28;20511;-48
2023/03/19 06:09:43;;;;;;;24.87;19.97;;;9.30;99.90;;;;;;5035181;28;20182;-50
2023/03/19 06:12:09;;;;;;;24.50;19.37;;;9.40;99.90;;;;;;5035207;28;20255;-50
2023/03/19 06:14:34;;;;;;;21.80;18.27;;;9.40;99.90;;;;;;5035170;28;20197;-50
2023/03/19 06:17:00;;;;;;;21.57;18.50;;;9.50;99.90;;;;;;5035311;28;20273;-50
2023/03/19 06:19:26;;;;;;;19.80;16.30;;;9.50;99.90;;;;;;5035048;28;20178;-50
2023/03/19 06:21:51;;;;;;;17.00;15.20;;;9.60;99.90;;;;;;5035558;28;20210;-50
2023/03/19 06:24:17;;;;;;;22.90;15.90;;;9.60;99.90;;;;;;5035021;28;20625;-47
2023/03/19 06:26:43;;;;;;;20.13;16.20;;;9.60;99.90;;;;;;5034938;28;20186;-49
2023/03/19 06:29:08;;;;;;;17.57;14.77;;;9.60;99.90;;;;;;5034790;28;20198;-48
2023/03/19 06:31:35;;;;;;;18.03;14.77;;;9.70;99.90;;;;;;5034823;28;20305;-50
2023/03/19 06:34:00;;;;;;;16.30;13.17;;;9.70;99.90;;;;;;5034813;28;20201;-48
2023/03/19 06:36:26;;;;;;;15.80;12.30;;;9.70;99.90;;;;;;5034618;28;20424;-48
2023/03/19 06:38:51;;;;;;;16.83;12.27;;;9.90;99.90;;;;;;5035118;28;20228;-48
2023/03/19 06:41:17;;;;;;;17.60;13.13;;;9.90;99.90;;;;;;5034944;28;20506;-49
2023/03/19 06:43:42;;;;;;;16.20;11.97;;;10.00;99.90;;;;;;5034570;28;20233;-48
2023/03/19 06:46:09;;;;;;;15.00;11.73;;;10.00;99.90;;;;;;5034475;28;20193;-48
2023/03/19 06:48:35;;;;;;;15.80;12.63;;;10.10;99.90;;;;;;5034580;28;20193;-48
2023/03/19 06:51:01;;;;;;;16.77;12.73;;;10.20;99.90;;;;;;5034301;28;20413;-48
2023/03/19 06:53:27;;;;;;;13.47;11.73;;;10.40;99.90;;;;;;5033465;28;20417;-48
2023/03/19 06:55:53;;;;;;;14.87;12.80;;;10.40;99.90;;;;;;5034261;28;20191;-48
2023/03/19 06:58:19;;;;;;;16.83;11.70;;;10.50;99.90;;;;;;5034702;28;20429;-49
2023/03/19 07:00:45;;;;;;;15.53;13.13;;;10.50;99.90;;;;;;5034547;28;20433;-48
2023/03/19 07:03:11;;;;;;;15.43;11.23;;;10.60;99.90;;;;;;5034353;28;20440;-48
2023/03/19 07:05:36;;;;;;;13.60;11.67;;;10.60;99.90;;;;;;5034361;28;20209;-49
2023/03/19 07:08:02;;;;;;;15.07;11.97;;;10.70;83.90;;;;;;5033995;28;20418;-49
2023/03/19 07:10:28;;;;;;;13.90;11.60;;;10.70;50.40;;;;;;5034054;28;20642;-49
2023/03/19 07:12:53;;;;;;;14.60;12.00;;;10.70;17.90;;;;;;5034139;28;20519;-49
2023/03/19 07:15:20;;;;;;;18.40;11.63;;;10.80;3.80;;;;;;5034010;28;20194;-50
2023/03/19 07:17:46;;;;;;;12.83;11.03;;;10.90;1.00;;;;;;5033958;28;20194;-49
2023/03/19 07:20:13;;;;;;;15.50;12.00;;;10.90;1.00;;;;;;5033866;28;20908;-49
2023/03/19 07:22:39;;;;;;;13.03;11.30;;;10.90;1.00;;;;;;5034114;28;20792;-49
2023/03/19 07:25:05;;;;;;;14.13;11.47;;;11.00;1.00;;;;;;5034235;28;20567;-49
2023/03/19 07:27:31;;;;;;;13.83;11.83;;;11.10;1.00;;;;;;5033894;28;20421;-51
2023/03/19 07:29:56;;;;;;;14.80;11.60;;;11.30;1.00;;;;;;5033667;28;20421;-49
2023/03/19 07:32:22;;;;;;;17.37;12.50;;;11.40;99.90;;;;;;5033834;28;20217;-50
2023/03/19 07:34:48;;;;;;;11.83;10.50;;;11.70;99.90;;;;;;5033790;28;20201;-50
2023/03/19 07:37:14;;;;;;;16.10;10.43;;;12.40;1.00;;;;;;5033672;28;20229;-50
2023/03/19 07:39:40;;;;;;;11.50;8.73;;;12.60;1.00;;;;;;5033829;28;20507;-49
2023/03/19 07:42:06;;;;;;;10.40;9.17;;;12.60;99.90;;;;;;5033868;28;20429;-49
2023/03/19 07:44:32;;;;;;;12.47;9.90;;;12.50;99.90;;;;;;5033343;28;20507;-50
2023/03/19 07:46:57;;;;;;;12.10;9.90;;;12.40;71.20;;;;;;5033291;28;20425;-50
2023/03/19 07:49:23;;;;;;;14.30;9.63;;;12.30;1.00;;;;;;5033605;28;20193;-49
2023/03/19 07:51:49;;;;;;;11.33;10.13;;;12.30;1.00;;;;;;5033681;28;20214;-49
2023/03/19 07:54:14;;;;;;;12.20;9.50;;;12.30;99.90;;;;;;5033749;28;20186;-50
2023/03/19 07:56:40;;;;;;;12.10;9.00;;;12.30;99.90;;;;;;5033633;28;20182;-50
2023/03/19 07:59:07;;;;;;;12.10;8.60;;;12.20;1.00;;;;;;5033387;28;20191;-49
2023/03/19 08:01:32;;;;;;;9.83;8.77;;;12.20;1.00;;;;;;5033704;28;20186;-50
2023/03/19 08:03:58;;;;;;;16.43;9.20;;;12.20;1.00;;;;;;5033323;28;20428;-50
2023/03/19 08:06:24;;;;;;;11.63;9.43;;;12.20;96.40;;;;;;5033037;28;20183;-50
2023/03/19 08:08:49;;;;;;;17.63;9.53;;;12.30;1.00;;;;;;5033082;28;20178;-49
2023/03/19 08:11:15;;;;;;;13.07;9.57;;;12.30;1.00;;;;;;5033413;28;20234;-49
2023/03/19 08:13:41;;;;;;;14.07;9.77;;;12.40;1.00;;;;;;5033477;28;20553;-50
2023/03/19 08:16:07;;;;;;;13.07;9.53;;;12.50;1.00;;;;;;5033617;28;20753;-49
2023/03/19 08:18:34;;;;;;;15.60;9.50;;;12.50;1.00;;;;;;5033136;28;20216;-51
2023/03/19 08:21:00;;;;;;;12.53;9.50;;;12.40;99.90;;;;;;5033503;28;20417;-49
2023/03/19 08:23:26;;;;;;;11.53;9.87;;;12.40;1.00;;;;;;5033431;28;20760;-50
2023/03/19 08:25:52;;;;;;;12.10;9.00;;;12.50;99.90;;;;;;5033079;28;20188;-50
2023/03/19 08:28:18;;;;;;;9.50;8.20;;;12.60;33.50;;;;;;5033093;28;20300;-50
2023/03/19 08:30:44;;;;;;;14.90;9.03;;;12.70;1.00;;;;;;5033126;28;20474;-50
2023/03/19 08:33:10;;;;;;;15.87;8.93;;;12.80;99.90;;;;;;5032767;28;20971;-51
2023/03/19 08:35:36;;;;;;;12.53;9.20;;;12.90;1.00;;;;;;5032923;28;20515;-51
2023/03/19 08:38:02;;;;;;;9.40;7.97;;;13.10;1.00;;;;;;5033201;28;20256;-51
2023/03/19 08:40:28;;;;;;;12.00;9.27;;;13.40;99.90;;;;;;5033182;28;20633;-51
2023/03/19 08:42:55;;;;;;;10.60;8.30;;;13.60;51.50;;;;;;5033098;28;20233;-50
2023/03/19 08:45:21;;;;;;;10.70;8.70;;;14.00;35.70;;;;;;5033370;28;20182;-51
2023/03/19 08:47:47;;;;;;;9.40;7.00;;;14.90;1.00;;;;;;5032936;28;20844;-51
2023/03/19 08:50:13;;;;;;;8.63;7.10;;;15.30;1.00;;;;;;5033055;28;20468;-51
2023/03/19 08:52:39;;;;;;;11.33;7.10;;;15.90;1.00;;;;;;5032635;28;20472;-51
2023/03/19 08:55:06;;;;;;;10.00;6.70;;;16.60;1.00;;;;;;5033059;28;20428;-51
2023/03/19 08:57:32;;;;;;;10.10;6.77;;;17.30;1.00;;;;;;5033192;28;20229;-51
2023/03/19 08:59:57;;;;;;;10.23;6.20;;;17.80;1.00;;;;;;5032781;28;20928;-52
2023/03/19 09:02:23;;;;;;;6.57;4.90;;;18.20;1.00;;;;;;5033360;28;20213;-50
2023/03/19 09:04:49;;;;;;;7.97;5.50;;;18.10;1.00;;;;;;5033090;28;20637;-51
2023/03/19 09:07:15;;;;;;;8.00;6.07;;;18.10;1.00;;;;;;5032546;28;20309;-51
2023/03/19 09:09:42;;;;;;;6.90;5.57;;;18.40;1.00;;;;;;5033199;28;20437;-52
2023/03/19 09:12:11;;;;;;;6.17;4.07;;;18.70;1.00;;;;;;5032772;28;20482;-52
2023/03/19 09:14:37;;;;;;;5.50;4.90;;;18.90;1.00;;;;;;5033057;28;20452;-51
2023/03/19 09:17:03;;;;;;;6.87;4.57;;;18.70;1.00;;;;;;5033647;28;20424;-52
2023/03/19 09:19:29;;;;;;;4.67;3.80;;;18.70;1.00;;;;;;5036450;28;20754;-52
2023/03/19 09:21:55;;;;;;;4.00;3.60;;;18.60;1.00;;;;;;5036251;28;20443;-51
2023/03/19 09:24:20;;;;;;;5.73;4.30;;;18.40;1.00;;;;;;5036384;28;20182;-52
2023/03/19 09:26:46;;;;;;;4.10;3.00;;;18.40;1.00;;;;;;5036512;28;20186;-52
2023/03/19 09:29:12;;;;;;;4.77;3.50;;;18.30;1.00;;;;;;5035970;28;20178;-51
2023/03/19 09:31:38;;;;;;;4.33;3.07;;;18.30;1.00;;;;;;5036067;28;20213;-52
2023/03/19 09:34:05;;;;;;;3.40;3.07;;;18.20;1.00;;;;;;5035784;28;20427;-53
2023/03/19 09:36:31;;;;;;;5.20;3.53;;;18.00;1.00;;;;;;5036202;28;20406;-52
2023/03/19 09:38:57;;;;;;;4.90;3.33;;;17.70;1.00;;;;;;5035874;28;20421;-51
2023/03/19 09:41:59;;;;;;;7.63;3.67;;;17.30;1.00;;;;;;5036312;28;20187;-52
2023/03/19 09:44:30;;;;;;;4.93;4.27;;;16.80;1.00;;;;;;5005386;28;20573;-53
2023/03/19 09:47:07;;;;;;;4.13;3.70;;;16.40;1.00;;;;;;4996741;28;20518;-52
2023/03/19 09:49:41;;;;;;;4.53;4.03;;;16.40;1.00;;;;;;4996450;28;20464;-50
2023/03/19 09:52:19;;;;;;;4.53;4.10;;;16.20;1.00;;;;;;4996504;28;20450;-51
2023/03/19 09:54:48;;;;;;;4.30;3.90;;;16.30;1.00;;;;;;4996611;28;20476;-53
2023/03/19 09:57:16;;;;;;;5.70;4.50;;;16.60;1.00;;;;;;4996363;28;20422;-51
2023/03/19 09:59:41;;;;;;;5.17;4.60;;;17.00;1.00;;;;;;4996195;28;20426;-52
2023/03/19 10:02:28;;;;;;;8.30;4.40;;;17.20;1.00;;;;;;4996151;28;20773;-52
2023/03/19 10:05:19;;;;;;;5.27;4.50;;;17.30;1.00;;;;;;4996381;28;20282;-52
2023/03/19 10:08:02;;;;;;;4.97;4.43;;;17.50;1.00;;;;;;4996082;28;20462;-52
2023/03/19 10:10:54;;;;;;;5.07;4.53;;;17.50;1.00;;;;;;4995912;28;20426;-52
2023/03/19 10:13:47;;;;;;;5.77;4.07;;;17.30;1.00;;;;;;4996264;28;20808;-52
2023/03/19 10:16:19;;;;;;;7.47;3.97;;;17.30;1.00;;;;;;4996006;28;20419;-53
2023/03/19 10:18:50;;;;;;;4.27;3.87;;;17.30;1.00;;;;;;4995681;28;20434;-51
2023/03/19 10:21:26;;;;;;;4.77;3.90;;;17.40;1.00;;;;;;4995843;28;20503;-52
2023/03/19 10:23:57;;;;;;;4.60;4.10;;;17.50;1.00;;;;;;4995962;28;20422;-52
2023/03/19 10:26:30;;;;;;;4.60;3.77;;;17.70;1.00;;;;;;4995569;28;20423;-52
2023/03/19 10:29:12;;;;;;;4.33;3.93;;;17.90;1.00;;;;;;4995506;28;20410;-52
2023/03/19 10:31:58;;;;;;;5.43;4.27;;;18.30;1.00;;;;;;4993922;28;20454;-52
2023/03/19 10:34:31;;;;;;;6.60;4.80;;;18.90;1.00;;;;;;4995326;28;20410;-53
2023/03/19 10:36:59;;;;;;;6.30;4.23;;;19.60;1.00;;;;;;4995363;28;20443;-53
2023/03/19 10:39:26;;;;;;;8.50;4.93;;;19.70;1.00;;;;;;4995836;28;20749;-52
2023/03/19 10:42:08;;;;;;;5.87;4.10;;;20.00;1.00;;;;;;4995328;28;20509;-53
2023/03/19 10:44:41;;;;;;;5.73;3.97;;;20.20;1.00;;;;;;5030613;28;20469;-52
2023/03/19 10:47:12;;;;;;;7.70;4.30;;;20.10;1.00;;;;;;5034842;28;20417;-52
2023/03/19 10:49:38;;;;;;;7.00;4.40;;;19.80;1.00;;;;;;5034650;28;20421;-52
2023/03/19 10:52:05;;;;;;;5.13;4.17;;;19.20;1.00;;;;;;5034718;28;20467;-52
2023/03/19 10:54:31;;;;;;;6.00;4.03;;;18.80;1.00;;;;;;5034646;28;20245;-53
2023/03/19 10:56:59;;;;;;;8.23;4.53;;;18.60;1.00;;;;;;5034258;28;20917;-52
2023/03/19 10:59:35;;;;;;;5.30;4.00;;;18.40;1.00;;;;;;5034654;28;20178;-51
2023/03/19 11:02:15;;;;;;;4.30;3.90;;;18.40;1.00;;;;;;5034287;28;20417;-51
2023/03/19 11:04:41;;;;;;;7.43;5.03;;;18.30;1.00;;;;;;5034745;28;20409;-53
2023/03/19 11:07:18;;;;;;;6.03;4.57;;;18.60;1.00;;;;;;5034173;28;20916;-53
2023/03/19 11:09:48;;;;;;;6.60;4.30;;;18.80;1.00;;;;;;5034291;28;20230;-52
2023/03/19 11:12:21;;;;;;;4.03;3.63;;;19.10;1.00;;;;;;5034066;28;20468;-52
2023/03/19 11:14:52;;;;;;;4.90;4.03;;;19.60;1.00;;;;;;5034598;28;20419;-51
2023/03/19 11:17:23;;;;;;;5.13;4.50;;;20.40;1.00;;;;;;5034097;28;20403;-52
2023/03/19 11:20:06;;;;;;;4.80;4.30;;;21.30;1.00;;;;;;5034132;28;20525;-53
2023/03/19 11:22:35;;;;;;;6.93;5.10;;;21.80;1.00;;;;;;5034122;28;20419;-52
2023/03/19 11:25:19;;;;;;;7.07;4.50;;;21.90;1.00;;;;;;5034012;28;20428;-52
2023/03/19 11:28:01;;;;;;;5.23;4.63;;;21.50;1.00;;;;;;5034053;28;20439;-53
2023/03/19 11:30:49;;;;;;;11.43;5.67;;;21.00;1.00;;;;;;5034125;28;20413;-53
2023/03/19 11:33:18;;;;;;;11.90;5.57;;;20.60;1.00;;;;;;5034042;28;20509;-52
2023/03/19 11:36:02;;;;;;;7.10;5.40;;;21.10;1.00;;;;;;5033644;28;20848;-53
2023/03/19 11:38:49;;;;;;;8.50;5.37;;;21.10;1.00;;;;;;5034084;28;20772;-53
2023/03/19 11:41:34;;;;;;;6.43;5.40;;;20.70;1.00;;;;;;5032099;28;20429;-53
2023/03/19 11:44:15;;;;;;;7.53;5.80;;;20.30;1.00;;;;;;5032494;28;20480;-53
2023/03/19 11:46:53;;;;;;;9.17;5.90;;;19.90;1.00;;;;;;5033454;28;20893;-52
2023/03/19 11:49:18;;;;;;;6.80;5.70;;;19.70;1.00;;;;;;5033900;28;20415;-53
2023/03/19 11:51:59;;;;;;;8.83;6.50;;;19.30;1.00;;;;;;5033418;28;20460;-53
2023/03/19 11:54:33;;;;;;;7.57;6.23;;;19.00;1.00;;;;;;5033470;28;20193;-52
2023/03/19 11:57:16;;;;;;;5.80;5.30;;;18.50;1.00;;;;;;5033346;28;20482;-52
2023/03/19 12:00:11;;;;;;;7.90;5.97;;;18.10;1.00;;;;;;5033695;28;20536;-53
2023/03/19 12:02:37;;;;;;;7.70;5.40;;;17.90;1.00;;;;;;5033632;28;20425;-51
2023/03/19 12:05:05;;;;;;;9.20;6.70;;;17.60;1.00;;;;;;5032545;28;20424;-52
2023/03/19 12:07:39;;;;;;;8.17;5.90;;;17.50;1.00;;;;;;5032666;28;20189;-53
2023/03/19 12:10:35;;;;;;;6.63;5.67;;;17.40;1.00;;;;;;5033094;28;20467;-52
2023/03/19 12:13:19;;;;;;;7.57;5.63;;;17.40;1.00;;;;;;5033055;28;20472;-52
2023/03/19 12:15:45;;;;;;;9.63;5.90;;;17.40;1.00;;;;;;5033203;28;20454;-53
2023/03/19 12:18:29;;;;;;;7.93;6.33;;;17.50;1.00;;;;;;5033649;28;20853;-52
2023/03/19 12:21:14;;;;;;;8.40;6.40;;;17.40;1.00;;;;;;5033395;28;20444;-52
2023/03/19 12:23:46;;;;;;;7.37;5.83;;;17.30;1.00;;;;;;5033153;28;20436;-51
2023/03/19 12:26:35;;;;;;;9.33;6.00;;;17.30;1.00;;;;;;5033205;28;20425;-51
2023/03/19 12:29:18;;;;;;;9.80;7.23;;;17.30;1.00;;;;;;5029275;28;20441;-51
2023/03/19 12:31:59;;;;;;;8.00;7.23;;;17.40;1.00;;;;;;5033063;28;20548;-52
2023/03/19 12:34:35;;;;;;;9.20;6.00;;;17.40;1.00;;;;;;5033156;28;20515;-51
2023/03/19 12:37:20;;;;;;;7.20;5.13;;;17.40;1.00;;;;;;5033500;28;20409;-51
2023/03/19 12:40:27;;;;;;;6.03;5.17;;;17.50;1.00;;;;;;5033184;28;20805;-51
2023/03/19 12:42:57;;;;;;;7.20;4.13;;;17.50;1.00;;;;;;5032442;28;20480;-52
2023/03/19 12:45:33;;;;;;;4.80;3.90;;;17.50;1.00;;;;;;5033240;28;20421;-51
2023/03/19 12:48:15;;;;;;;4.00;3.60;;;17.60;1.00;;;;;;5033166;28;20764;-51
2023/03/19 12:50:45;;;;;;;9.00;4.60;;;17.60;1.00;;;;;;5033021;28;20831;-51
2023/03/19 12:53:29;;;;;;;5.10;3.47;;;17.60;1.00;;;;;;5036969;28;20623;-52
2023/03/19 12:56:01;;;;;;;5.00;3.70;;;17.70;1.00;;;;;;5036982;28;20405;-51
2023/03/19 12:58:53;;;;;;;6.33;3.47;;;17.90;1.00;;;;;;5036859;28;20439;-52
2023/03/19 13:01:32;;;;;;;5.32;3.50;;;17.80;1.00;;;;;;5024947;28;20415;-51